Time;durP1;ratioP1;P1;durP2;ratioP2;P2;SDS_P1;SDS_P2;PMS_P1;PMS_P2;Temp;Humidity;BMP_temperature;BMP_pressure;BME280_temperature;BME280_humidity;BME280_pressure;Samples;Min_cycle;Max_cycle;Signal;HPM_P1;HPM_P2
2023/09/14 00:00:27;;;;;;;7.60;4.97;;;;;;;;;;5014359;27;98712;-61
2023/09/14 00:02:54;;;;;;;11.50;4.38;;;;;;;;;;5010372;27;98695;-60
2023/09/14 00:05:20;;;;;;;14.32;7.28;;;;;;;;;;5010907;27;98654;-61
2023/09/14 00:07:47;;;;;;;10.82;5.57;;;;;;;;;;5013976;27;100235;-61
2023/09/14 00:10:14;;;;;;;5.93;4.57;;;;;;;;;;5010266;27;98573;-61
2023/09/14 00:12:40;;;;;;;5.65;4.05;;;;;;;;;;5012148;27;99462;-60
2023/09/14 00:15:07;;;;;;;10.02;4.43;;;;;;;;;;5012959;27;99551;-61
2023/09/14 00:17:33;;;;;;;9.15;4.05;;;;;;;;;;5015892;27;98460;-61
2023/09/14 00:19:59;;;;;;;17.67;7.82;;;;;;;;;;5009677;27;100019;-61
2023/09/14 00:22:26;;;;;;;9.15;4.68;;;;;;;;;;5011316;27;98613;-61
2023/09/14 00:24:52;;;;;;;7.72;3.72;;;;;;;;;;5010663;27;99114;-61
2023/09/14 00:27:19;;;;;;;5.22;4.05;;;;;;;;;;5010001;27;99592;-61
2023/09/14 00:29:48;;;;;;;11.70;6.57;;;;;;;;;;5010272;27;98636;-61
2023/09/14 00:32:14;;;;;;;14.70;3.83;;;;;;;;;;5013800;27;99788;-61
2023/09/14 00:34:40;;;;;;;11.27;5.90;;;;;;;;;;5008956;27;101119;-61
2023/09/14 00:37:07;;;;;;;5.95;4.63;;;;;;;;;;5014150;27;98516;-61
2023/09/14 00:39:33;;;;;;;6.65;3.15;;;;;;;;;;5014022;27;99545;-61
2023/09/14 00:41:59;;;;;;;9.07;3.75;;;;;;;;;;5014449;27;98652;-62
2023/09/14 00:44:26;;;;;;;6.82;4.35;;;;;;;;;;5025617;27;99093;-60
2023/09/14 00:46:52;;;;;;;9.05;5.18;;;;;;;;;;5012558;27;99481;-61
2023/09/14 00:49:19;;;;;;;6.90;4.97;;;;;;;;;;5014951;27;97845;-61
2023/09/14 00:51:45;;;;;;;12.07;6.22;;;;;;;;;;5009692;27;98491;-61
2023/09/14 00:54:12;;;;;;;11.15;7.18;;;;;;;;;;5009805;27;99899;-61
2023/09/14 00:56:39;;;;;;;27.15;10.35;;;;;;;;;;5014067;27;99292;-61
2023/09/14 00:59:07;;;;;;;7.50;6.80;;;;;;;;;;5020174;27;101020;-61
2023/09/14 01:01:33;;;;;;;9.70;6.32;;;;;;;;;;5010401;27;98498;-61
2023/09/14 01:04:00;;;;;;;11.65;6.85;;;;;;;;;;5010022;27;99172;-62
2023/09/14 01:06:26;;;;;;;9.93;3.85;;;;;;;;;;5013341;27;99474;-61
2023/09/14 01:08:54;;;;;;;6.25;3.72;;;;;;;;;;5009947;27;98984;-61
2023/09/14 01:11:20;;;;;;;6.05;3.28;;;;;;;;;;5009413;27;99806;-61
2023/09/14 01:13:49;;;;;;;11.00;3.50;;;;;;;;;;5009029;27;98771;-61
2023/09/14 01:16:30;;;;;;;8.40;4.13;;;;;;;;;;5015053;27;98768;-61
2023/09/14 01:18:59;;;;;;;9.20;5.70;;;;;;;;;;5009190;27;99158;-61
2023/09/14 01:21:32;;;;;;;8.93;5.25;;;;;;;;;;5020348;27;101152;-61
2023/09/14 01:24:07;;;;;;;7.32;5.25;;;;;;;;;;5009945;27;100113;-61
2023/09/14 01:26:34;;;;;;;10.90;4.97;;;;;;;;;;5009708;27;99620;-61
2023/09/14 01:29:04;;;;;;;14.85;7.80;;;;;;;;;;5009766;27;99064;-61
2023/09/14 01:31:31;;;;;;;8.07;6.03;;;;;;;;;;5009555;27;100387;-62
2023/09/14 01:33:57;;;;;;;9.70;5.45;;;;;;;;;;5008728;27;99487;-61
2023/09/14 01:36:36;;;;;;;7.95;5.13;;;;;;;;;;5009943;27;98965;-61
2023/09/14 01:39:04;;;;;;;7.30;6.50;;;;;;;;;;5009431;27;99202;-61
2023/09/14 01:41:32;;;;;;;11.98;8.05;;;;;;;;;;5009413;27;99835;-61
2023/09/14 01:43:59;;;;;;;11.10;5.45;;;;;;;;;;5013158;27;98767;-61
2023/09/14 01:46:26;;;;;;;7.68;5.10;;;;;;;;;;5008627;27;101219;-61
2023/09/14 01:48:52;;;;;;;10.05;6.28;;;;;;;;;;5007279;27;98532;-61
2023/09/14 01:51:19;;;;;;;6.28;4.78;;;;;;;;;;5008090;27;99224;-61
2023/09/14 01:53:45;;;;;;;10.57;5.90;;;;;;;;;;5008036;27;100805;-61
2023/09/14 01:56:11;;;;;;;12.70;4.85;;;;;;;;;;5007381;27;98879;-61
2023/09/14 01:58:38;;;;;;;8.27;5.65;;;;;;;;;;5007366;27;99471;-61
2023/09/14 02:01:05;;;;;;;4.25;3.92;;;;;;;;;;5011425;27;100577;-61
2023/09/14 02:03:31;;;;;;;7.03;4.28;;;;;;;;;;5008577;27;97981;-61
2023/09/14 02:06:01;;;;;;;11.10;7.38;;;;;;;;;;5010103;27;98605;-61
2023/09/14 02:08:30;;;;;;;8.25;3.58;;;;;;;;;;5006391;27;98693;-60
2023/09/14 02:10:56;;;;;;;8.23;5.63;;;;;;;;;;5007086;27;99485;-61
2023/09/14 02:13:26;;;;;;;18.60;4.73;;;;;;;;;;5014023;27;100498;-61
2023/09/14 02:15:53;;;;;;;11.73;4.25;;;;;;;;;;5009059;27;98538;-61
2023/09/14 02:18:19;;;;;;;7.70;5.80;;;;;;;;;;5008826;27;99180;-61
2023/09/14 02:20:46;;;;;;;7.03;4.53;;;;;;;;;;5007478;27;100495;-60
2023/09/14 02:23:12;;;;;;;7.80;3.55;;;;;;;;;;5011536;27;98527;-61
2023/09/14 02:25:41;;;;;;;11.27;6.10;;;;;;;;;;5011265;27;99122;-61
2023/09/14 02:28:08;;;;;;;8.65;4.80;;;;;;;;;;5010803;27;99723;-60
2023/09/14 02:30:37;;;;;;;10.20;3.75;;;;;;;;;;5006839;27;98606;-60
2023/09/14 02:33:04;;;;;;;10.52;5.32;;;;;;;;;;5005764;27;99519;-60
2023/09/14 02:35:30;;;;;;;15.38;3.65;;;;;;;;;;5019422;27;101988;-60
2023/09/14 02:37:57;;;;;;;6.88;4.00;;;;;;;;;;5007632;27;100977;-61
2023/09/14 02:40:23;;;;;;;5.70;3.10;;;;;;;;;;5006774;27;99534;-61
2023/09/14 02:42:49;;;;;;;7.72;2.95;;;;;;;;;;5006687;27;98950;-61
2023/09/14 02:45:16;;;;;;;7.95;3.63;;;;;;;;;;4974855;27;1183585;-61
2023/09/14 02:47:42;;;;;;;5.13;4.47;;;;;;;;;;5013807;27;99567;-61
2023/09/14 02:50:08;;;;;;;8.88;3.47;;;;;;;;;;5008657;27;99124;-61
2023/09/14 02:52:35;;;;;;;5.57;4.72;;;;;;;;;;5015706;27;99055;-60
2023/09/14 02:55:01;;;;;;;4.95;3.97;;;;;;;;;;5007345;27;102178;-60
2023/09/14 02:57:27;;;;;;;7.85;3.50;;;;;;;;;;5009028;27;100101;-60
2023/09/14 02:59:54;;;;;;;8.45;3.78;;;;;;;;;;5013694;27;101224;-60
2023/09/14 03:02:24;;;;;;;7.20;4.05;;;;;;;;;;5010010;27;98862;-60
2023/09/14 03:04:51;;;;;;;12.90;4.93;;;;;;;;;;5008223;27;99110;-60
2023/09/14 03:07:17;;;;;;;8.85;3.78;;;;;;;;;;5008579;27;103911;-60
2023/09/14 03:09:43;;;;;;;5.32;4.00;;;;;;;;;;5011636;27;98608;-60
2023/09/14 03:12:10;;;;;;;4.90;4.50;;;;;;;;;;5008255;27;99546;-60
2023/09/14 03:14:36;;;;;;;7.63;4.82;;;;;;;;;;5007673;27;98962;-60
2023/09/14 03:17:03;;;;;;;5.32;4.40;;;;;;;;;;5011245;27;99446;-60
2023/09/14 03:19:29;;;;;;;8.50;6.55;;;;;;;;;;5008010;27;98705;-61
2023/09/14 03:21:56;;;;;;;6.10;4.20;;;;;;;;;;5007852;27;98555;-61
2023/09/14 03:24:22;;;;;;;9.02;4.55;;;;;;;;;;5007329;27;100285;-61
2023/09/14 03:26:49;;;;;;;7.53;4.22;;;;;;;;;;5012043;27;99498;-61
2023/09/14 03:29:15;;;;;;;7.47;4.75;;;;;;;;;;5007735;27;98849;-61
2023/09/14 03:31:41;;;;;;;4.35;3.30;;;;;;;;;;5011957;27;99552;-61
2023/09/14 03:34:08;;;;;;;12.15;5.60;;;;;;;;;;5009169;28;98898;-61
2023/09/14 03:36:35;;;;;;;6.63;4.53;;;;;;;;;;5010985;27;98976;-61
2023/09/14 03:39:02;;;;;;;7.78;3.10;;;;;;;;;;5011738;27;100460;-61
2023/09/14 03:41:29;;;;;;;5.70;4.00;;;;;;;;;;5012154;27;98282;-61
2023/09/14 03:43:55;;;;;;;7.00;4.00;;;;;;;;;;5013231;27;98514;-61
2023/09/14 03:46:23;;;;;;;5.70;2.72;;;;;;;;;;5016805;27;99478;-61
2023/09/14 03:48:49;;;;;;;5.38;3.42;;;;;;;;;;5012192;27;99405;-61
2023/09/14 03:51:16;;;;;;;6.57;2.95;;;;;;;;;;5009892;27;99809;-61
2023/09/14 03:53:42;;;;;;;4.60;2.72;;;;;;;;;;5017874;27;99516;-61
2023/09/14 03:56:08;;;;;;;3.90;2.75;;;;;;;;;;5011309;27;100405;-61
2023/09/14 03:58:35;;;;;;;4.55;3.67;;;;;;;;;;5010977;27;101253;-61
2023/09/14 04:01:03;;;;;;;7.97;2.20;;;;;;;;;;5011372;27;98693;-61
2023/09/14 04:03:29;;;;;;;5.95;3.00;;;;;;;;;;5014912;28;103199;-61
2023/09/14 04:05:56;;;;;;;3.88;2.45;;;;;;;;;;5012055;27;99841;-61
2023/09/14 04:08:23;;;;;;;4.05;2.67;;;;;;;;;;5015691;27;98610;-60
2023/09/14 04:10:51;;;;;;;4.78;2.35;;;;;;;;;;5021745;27;99303;-61
2023/09/14 04:13:26;;;;;;;3.72;2.75;;;;;;;;;;5009949;27;100193;-61
2023/09/14 04:15:52;;;;;;;3.58;3.28;;;;;;;;;;5014976;27;98748;-61
2023/09/14 04:18:19;;;;;;;4.05;1.98;;;;;;;;;;5013375;27;100523;-61
2023/09/14 04:20:49;;;;;;;5.25;1.98;;;;;;;;;;5011288;27;98589;-61
2023/09/14 04:23:15;;;;;;;8.35;2.95;;;;;;;;;;5014745;27;99122;-61
2023/09/14 04:25:44;;;;;;;6.35;2.83;;;;;;;;;;5015304;27;100652;-61
2023/09/14 04:28:14;;;;;;;7.43;3.38;;;;;;;;;;5010971;27;98524;-61
2023/09/14 04:30:44;;;;;;;4.82;2.10;;;;;;;;;;5011780;27;99148;-61
2023/09/14 04:33:11;;;;;;;2.75;1.83;;;;;;;;;;5010509;27;99656;-61
2023/09/14 04:35:38;;;;;;;2.47;2.28;;;;;;;;;;5010844;27;98617;-61
2023/09/14 04:38:06;;;;;;;6.90;2.03;;;;;;;;;;5016809;27;99234;-61
2023/09/14 04:40:39;;;;;;;2.40;2.10;;;;;;;;;;5014527;27;98472;-61
2023/09/14 04:43:06;;;;;;;4.97;3.35;;;;;;;;;;5010098;27;100158;-61
2023/09/14 04:45:32;;;;;;;5.18;3.53;;;;;;;;;;5009438;27;99690;-61
2023/09/14 04:47:59;;;;;;;2.55;2.35;;;;;;;;;;5013152;27;98779;-61
2023/09/14 04:50:26;;;;;;;4.40;2.85;;;;;;;;;;5009764;27;98838;-61
2023/09/14 04:52:52;;;;;;;2.92;2.65;;;;;;;;;;5009098;27;100506;-60
2023/09/14 04:55:18;;;;;;;3.17;1.92;;;;;;;;;;5010502;27;97869;-61
2023/09/14 04:57:45;;;;;;;3.58;3.25;;;;;;;;;;5012576;27;98475;-61
2023/09/14 05:00:12;;;;;;;5.15;2.28;;;;;;;;;;5009866;27;98788;-61
2023/09/14 05:02:39;;;;;;;5.25;3.08;;;;;;;;;;5010040;27;99311;-61
2023/09/14 05:05:07;;;;;;;2.72;2.20;;;;;;;;;;5017637;27;99554;-61
2023/09/14 05:07:34;;;;;;;4.30;2.00;;;;;;;;;;5009933;27;98515;-61
2023/09/14 05:10:01;;;;;;;3.50;1.90;;;;;;;;;;5009540;27;99060;-61
2023/09/14 05:12:28;;;;;;;4.32;2.00;;;;;;;;;;5015276;27;99789;-61
2023/09/14 05:14:54;;;;;;;2.33;2.13;;;;;;;;;;5020490;27;98878;-61
2023/09/14 05:17:20;;;;;;;4.57;3.58;;;;;;;;;;5012362;27;99156;-61
2023/09/14 05:19:47;;;;;;;4.10;2.15;;;;;;;;;;5012799;27;98706;-61
2023/09/14 05:22:13;;;;;;;4.50;2.55;;;;;;;;;;5010469;27;98678;-61
2023/09/14 05:24:40;;;;;;;9.30;2.75;;;;;;;;;;5013162;27;98596;-61
2023/09/14 05:27:09;;;;;;;5.18;1.92;;;;;;;;;;5009085;27;99414;-62
2023/09/14 05:29:35;;;;;;;2.72;2.13;;;;;;;;;;5009011;27;100256;-61
2023/09/14 05:32:02;;;;;;;1.95;1.83;;;;;;;;;;5008876;27;99571;-61
2023/09/14 05:34:29;;;;;;;11.30;2.42;;;;;;;;;;5013741;27;98587;-60
2023/09/14 05:36:56;;;;;;;2.58;2.10;;;;;;;;;;5009352;27;99206;-61
2023/09/14 05:39:22;;;;;;;3.35;2.90;;;;;;;;;;5008731;27;99339;-61
2023/09/14 05:41:50;;;;;;;2.63;2.42;;;;;;;;;;5016322;27;98687;-61
2023/09/14 05:44:17;;;;;;;3.58;2.38;;;;;;;;;;5009287;27;98734;-61
2023/09/14 05:46:43;;;;;;;4.40;2.45;;;;;;;;;;5015845;27;98738;-61
2023/09/14 05:49:10;;;;;;;5.40;2.17;;;;;;;;;;5013749;27;100120;-61
2023/09/14 05:51:36;;;;;;;2.53;2.22;;;;;;;;;;5008380;27;100308;-61
2023/09/14 05:54:03;;;;;;;7.88;2.58;;;;;;;;;;5013265;27;98753;-65
2023/09/14 05:56:30;;;;;;;2.80;2.50;;;;;;;;;;5009648;27;100168;-61
2023/09/14 05:58:56;;;;;;;5.05;2.95;;;;;;;;;;5008727;27;99489;-61
2023/09/14 06:01:22;;;;;;;5.80;2.50;;;;;;;;;;5009151;27;98522;-61
2023/09/14 06:03:49;;;;;;;4.57;4.13;;;;;;;;;;5013292;27;98958;-61
2023/09/14 06:06:16;;;;;;;8.57;2.47;;;;;;;;;;5009765;27;99082;-61
2023/09/14 06:08:42;;;;;;;4.03;2.90;;;;;;;;;;5009176;27;99028;-61
2023/09/14 06:11:09;;;;;;;8.27;4.18;;;;;;;;;;5008096;27;100473;-61
2023/09/14 06:13:36;;;;;;;5.00;2.85;;;;;;;;;;5008747;27;98542;-61
2023/09/14 06:16:02;;;;;;;7.95;2.97;;;;;;;;;;5008762;27;99877;-61
2023/09/14 06:18:29;;;;;;;5.88;4.72;;;;;;;;;;5010108;27;99685;-61
2023/09/14 06:20:56;;;;;;;5.93;2.70;;;;;;;;;;5007774;27;98701;-61
2023/09/14 06:23:22;;;;;;;8.82;4.25;;;;;;;;;;5008829;27;99254;-61
2023/09/14 06:25:52;;;;;;;6.25;3.92;;;;;;;;;;5011718;27;99957;-61
2023/09/14 06:28:19;;;;;;;6.70;3.30;;;;;;;;;;5008546;27;99194;-61
2023/09/14 06:30:45;;;;;;;7.47;3.55;;;;;;;;;;5012375;27;99535;-61
2023/09/14 06:33:12;;;;;;;7.90;5.00;;;;;;;;;;5009587;27;97918;-61
2023/09/14 06:35:38;;;;;;;8.93;8.02;;;;;;;;;;5008363;27;98891;-61
2023/09/14 06:38:09;;;;;;;6.80;4.50;;;;;;;;;;5007809;27;99477;-61
2023/09/14 06:40:35;;;;;;;6.85;5.82;;;;;;;;;;5007455;27;99425;-61
2023/09/14 06:43:02;;;;;;;4.63;4.22;;;;;;;;;;5013114;27;99947;-60
2023/09/14 06:45:28;;;;;;;13.52;4.70;;;;;;;;;;5007925;27;100475;-61
2023/09/14 06:47:55;;;;;;;8.05;4.72;;;;;;;;;;5014486;27;98697;-61
2023/09/14 06:50:21;;;;;;;13.77;6.13;;;;;;;;;;5008266;27;99679;-61
2023/09/14 06:52:48;;;;;;;9.82;5.03;;;;;;;;;;5009238;27;98558;-61
2023/09/14 06:55:14;;;;;;;10.20;4.63;;;;;;;;;;5008169;27;99154;-61
2023/09/14 06:57:41;;;;;;;8.80;5.00;;;;;;;;;;5012382;27;99725;-62
2023/09/14 07:00:13;;;;;;;8.60;4.57;;;;;;;;;;5008343;27;98750;-61
2023/09/14 07:02:41;;;;;;;9.95;7.03;;;;;;;;;;5008457;27;100355;-62
2023/09/14 07:05:10;;;;;;;13.07;6.50;;;;;;;;;;5007558;27;100322;-61
2023/09/14 07:07:39;;;;;;;15.75;5.03;;;;;;;;;;5015263;27;98662;-61
2023/09/14 07:10:06;;;;;;;13.23;5.43;;;;;;;;;;5011813;27;100564;-61
2023/09/14 07:12:34;;;;;;;30.83;6.57;;;;;;;;;;5007253;27;98758;-61
2023/09/14 07:15:00;;;;;;;15.27;4.80;;;;;;;;;;5008433;27;100248;-61
2023/09/14 07:17:27;;;;;;;12.50;4.03;;;;;;;;;;5019087;27;99522;-61
2023/09/14 07:19:53;;;;;;;12.57;3.92;;;;;;;;;;5011848;27;98946;-61
2023/09/14 07:22:20;;;;;;;9.20;4.57;;;;;;;;;;5016311;27;97927;-61
2023/09/14 07:24:46;;;;;;;9.23;4.28;;;;;;;;;;5011000;27;99529;-61
2023/09/14 07:27:14;;;;;;;12.93;4.72;;;;;;;;;;5015040;27;98696;-62
2023/09/14 07:29:40;;;;;;;15.73;5.20;;;;;;;;;;5023162;27;100156;-62
2023/09/14 07:32:06;;;;;;;10.25;3.72;;;;;;;;;;5011002;27;98588;-61
2023/09/14 07:34:33;;;;;;;12.02;3.67;;;;;;;;;;5010674;27;99348;-61
2023/09/14 07:36:59;;;;;;;11.05;4.57;;;;;;;;;;5011264;27;99470;-62
2023/09/14 07:39:26;;;;;;;14.63;3.95;;;;;;;;;;5011838;27;98477;-61
2023/09/14 07:41:55;;;;;;;13.90;3.60;;;;;;;;;;5015042;27;100178;-61
2023/09/14 07:44:22;;;;;;;13.87;4.10;;;;;;;;;;5010108;27;99397;-62
2023/09/14 07:46:48;;;;;;;9.40;4.10;;;;;;;;;;5019399;27;97882;-62
2023/09/14 07:49:15;;;;;;;19.55;4.88;;;;;;;;;;5015748;27;99904;-62
2023/09/14 07:51:41;;;;;;;19.70;5.65;;;;;;;;;;5013874;27;99864;-61
2023/09/14 07:54:08;;;;;;;14.82;4.00;;;;;;;;;;5010375;27;99330;-65
2023/09/14 07:56:34;;;;;;;23.13;4.85;;;;;;;;;;5024670;27;100263;-62
2023/09/14 07:59:00;;;;;;;10.00;6.60;;;;;;;;;;5013091;27;98977;-61
2023/09/14 08:01:27;;;;;;;10.65;3.92;;;;;;;;;;5015000;27;99606;-61
2023/09/14 08:03:53;;;;;;;10.70;4.03;;;;;;;;;;5014125;27;99661;-61
2023/09/14 08:06:23;;;;;;;13.80;5.53;;;;;;;;;;5011148;27;98514;-61
2023/09/14 08:08:50;;;;;;;14.68;5.07;;;;;;;;;;5011265;27;99240;-61
2023/09/14 08:11:16;;;;;;;10.57;4.80;;;;;;;;;;5011050;27;98719;-61
2023/09/14 08:13:43;;;;;;;13.18;5.20;;;;;;;;;;5013813;27;98995;-61
2023/09/14 08:16:10;;;;;;;13.85;5.43;;;;;;;;;;5012954;27;99863;-62
2023/09/14 08:18:36;;;;;;;21.00;5.40;;;;;;;;;;5013934;27;99400;-62
2023/09/14 08:21:03;;;;;;;20.92;5.32;;;;;;;;;;5010515;27;99955;-61
2023/09/14 08:23:29;;;;;;;13.48;4.97;;;;;;;;;;5009722;27;99477;-62
2023/09/14 08:25:55;;;;;;;13.95;4.85;;;;;;;;;;5010100;28;100924;-61
2023/09/14 08:28:22;;;;;;;14.65;5.43;;;;;;;;;;5010717;27;98972;-62
2023/09/14 08:30:48;;;;;;;18.70;5.32;;;;;;;;;;5010652;27;99418;-62
2023/09/14 08:33:16;;;;;;;17.50;5.20;;;;;;;;;;5009807;27;98591;-61
2023/09/14 08:35:46;;;;;;;13.82;5.00;;;;;;;;;;5013081;27;99201;-61
2023/09/14 08:38:12;;;;;;;15.93;5.65;;;;;;;;;;5014498;27;98513;-61
2023/09/14 08:40:40;;;;;;;14.40;5.00;;;;;;;;;;5013099;27;99350;-61
2023/09/14 08:43:09;;;;;;;12.70;4.95;;;;;;;;;;5009768;27;100241;-62
2023/09/14 08:45:37;;;;;;;13.50;4.78;;;;;;;;;;5009305;27;98864;-61
2023/09/14 08:48:04;;;;;;;15.95;5.43;;;;;;;;;;5014363;27;99176;-61
2023/09/14 08:50:31;;;;;;;15.30;6.32;;;;;;;;;;5009109;27;99497;-61
2023/09/14 08:52:58;;;;;;;14.93;4.90;;;;;;;;;;5010302;27;98653;-61
2023/09/14 08:55:28;;;;;;;15.00;5.07;;;;;;;;;;5012902;27;100237;-62
2023/09/14 08:57:55;;;;;;;10.25;5.13;;;;;;;;;;5014106;27;98525;-61
2023/09/14 09:00:24;;;;;;;15.25;5.75;;;;;;;;;;5013526;27;100307;-62
2023/09/14 09:02:52;;;;;;;9.70;4.57;;;;;;;;;;5009352;27;99507;-61
2023/09/14 09:05:20;;;;;;;13.13;4.63;;;;;;;;;;5014106;27;98657;-61
2023/09/14 09:07:50;;;;;;;17.42;5.65;;;;;;;;;;5008828;27;99341;-60
2023/09/14 09:10:16;;;;;;;;;;;;;;;;;;5016365;27;99586;-59
2023/09/14 09:12:45;;;;;;;13.68;5.15;;;;;;;;;;5012382;27;118459;-61
2023/09/14 09:15:12;;;;;;;10.95;5.13;;;;;;;;;;5009237;27;100470;-61
2023/09/14 09:17:40;;;;;;;11.63;4.15;;;;;;;;;;5017244;27;100835;-62
2023/09/14 09:20:19;;;;;;;13.38;5.05;;;;;;;;;;5013626;27;98667;-61
2023/09/14 09:22:46;;;;;;;14.63;4.40;;;;;;;;;;5009212;27;100462;-61
2023/09/14 09:25:12;;;;;;;13.48;4.50;;;;;;;;;;5009952;27;97722;-61
2023/09/14 09:27:39;;;;;;;13.77;5.05;;;;;;;;;;5009852;27;98665;-62
2023/09/14 09:30:08;;;;;;;13.75;4.95;;;;;;;;;;5017526;27;100444;-62
2023/09/14 09:32:38;;;;;;;8.75;3.58;;;;;;;;;;5009089;27;99460;-62
2023/09/14 09:35:16;;;;;;;12.83;4.57;;;;;;;;;;5009748;27;100145;-62
2023/09/14 09:37:43;;;;;;;17.70;4.13;;;;;;;;;;5008152;27;100535;-62
2023/09/14 09:40:15;;;;;;;13.70;4.38;;;;;;;;;;5013868;27;98565;-62
2023/09/14 09:42:42;;;;;;;14.00;4.22;;;;;;;;;;5008614;27;100625;-60
2023/09/14 09:45:09;;;;;;;11.45;4.05;;;;;;;;;;5008203;27;99396;-61
2023/09/14 09:47:36;;;;;;;9.27;3.65;;;;;;;;;;5013952;27;99194;-61
2023/09/14 09:50:10;;;;;;;10.55;3.95;;;;;;;;;;5009074;27;98994;-61
2023/09/14 09:52:38;;;;;;;11.95;4.32;;;;;;;;;;5009014;27;98689;-61
2023/09/14 09:55:05;;;;;;;9.40;3.60;;;;;;;;;;5009317;27;99244;-61
2023/09/14 09:57:38;;;;;;;8.82;3.83;;;;;;;;;;5012383;27;100236;-61
2023/09/14 10:00:12;;;;;;;9.52;4.35;;;;;;;;;;5008154;27;98540;-61
2023/09/14 10:02:39;;;;;;;11.25;4.93;;;;;;;;;;5009890;27;99463;-61
2023/09/14 10:05:07;;;;;;;9.65;3.70;;;;;;;;;;5013889;27;98651;-61
2023/09/14 10:07:38;;;;;;;6.40;3.60;;;;;;;;;;5013180;27;100133;-61
2023/09/14 10:10:04;;;;;;;12.93;4.45;;;;;;;;;;5008124;27;99459;-61
2023/09/14 10:12:31;;;;;;;6.15;2.63;;;;;;;;;;5009442;27;98542;-61
2023/09/14 10:14:59;;;;;;;12.98;3.25;;;;;;;;;;5009791;27;99690;-61
2023/09/14 10:17:28;;;;;;;8.82;3.65;;;;;;;;;;5012800;27;102252;-61
2023/09/14 10:19:55;;;;;;;7.03;3.43;;;;;;;;;;5008585;27;98713;-61
2023/09/14 10:22:22;;;;;;;7.53;3.10;;;;;;;;;;5016755;27;99216;-61
2023/09/14 10:24:53;;;;;;;10.13;3.25;;;;;;;;;;5011130;27;99609;-61
2023/09/14 10:27:19;;;;;;;9.30;3.20;;;;;;;;;;5008161;27;99344;-61
2023/09/14 10:29:46;;;;;;;6.95;3.00;;;;;;;;;;5029793;27;100464;-61
2023/09/14 10:32:15;;;;;;;8.65;2.75;;;;;;;;;;5008908;27;98665;-62
2023/09/14 10:34:41;;;;;;;8.52;3.47;;;;;;;;;;5013322;27;100232;-61
2023/09/14 10:37:26;;;;;;;7.57;2.83;;;;;;;;;;5012138;27;99595;-61
2023/09/14 10:39:53;;;;;;;8.93;2.63;;;;;;;;;;5011425;27;97967;-62
2023/09/14 10:42:20;;;;;;;7.05;2.30;;;;;;;;;;5008027;27;98645;-62
2023/09/14 10:44:46;;;;;;;5.03;2.60;;;;;;;;;;5026691;27;100594;-61
2023/09/14 10:47:15;;;;;;;9.02;3.15;;;;;;;;;;5013568;27;99267;-59
2023/09/14 10:49:42;;;;;;;6.70;2.50;;;;;;;;;;5012086;27;100439;-61
2023/09/14 10:52:09;;;;;;;13.35;2.63;;;;;;;;;;5012214;27;98751;-60
2023/09/14 10:54:35;;;;;;;6.55;2.60;;;;;;;;;;5015832;27;99273;-60
2023/09/14 10:57:10;;;;;;;13.30;2.90;;;;;;;;;;5011024;27;99486;-60
2023/09/14 10:59:49;;;;;;;7.25;2.67;;;;;;;;;;5016310;27;98634;-60
2023/09/14 11:02:34;;;;;;;10.25;3.20;;;;;;;;;;5012573;27;99453;-60
2023/09/14 11:05:16;;;;;;;11.33;2.90;;;;;;;;;;5012080;27;98663;-60
2023/09/14 11:07:44;;;;;;;7.85;3.00;;;;;;;;;;5015385;27;98616;-61
2023/09/14 11:10:19;;;;;;;7.50;3.10;;;;;;;;;;5011046;27;100614;-60
2023/09/14 11:12:46;;;;;;;7.43;2.85;;;;;;;;;;5010384;27;99268;-60
2023/09/14 11:15:14;;;;;;;9.27;3.47;;;;;;;;;;5011844;27;101050;-60
2023/09/14 11:17:41;;;;;;;7.63;3.00;;;;;;;;;;5015164;27;99744;-60
2023/09/14 11:20:21;;;;;;;5.43;3.05;;;;;;;;;;5011402;27;98701;-60
2023/09/14 11:22:50;;;;;;;11.82;3.83;;;;;;;;;;5011539;27;99250;-60
2023/09/14 11:25:30;;;;;;;10.35;3.78;;;;;;;;;;5010354;27;99582;-60
2023/09/14 11:28:18;;;;;;;10.10;3.90;;;;;;;;;;5011398;27;98653;-60
2023/09/14 11:30:47;;;;;;;8.52;3.35;;;;;;;;;;5019039;27;101856;-60
2023/09/14 11:33:15;;;;;;;10.43;3.67;;;;;;;;;;5015899;27;98503;-60
2023/09/14 11:35:48;;;;;;;12.00;3.22;;;;;;;;;;5015943;27;100149;-60
2023/09/14 11:38:18;;;;;;;9.73;2.92;;;;;;;;;;5010098;27;99908;-60
2023/09/14 11:40:48;;;;;;;11.10;3.13;;;;;;;;;;5016639;27;98495;-60
2023/09/14 11:45:52;;;;;;;9.23;3.30;;;;;;;;;;5010536;27;100177;-60
2023/09/14 11:48:27;;;;;;;9.63;3.13;;;;;;;;;;5011406;27;98969;-61
2023/09/14 11:51:00;;;;;;;11.73;3.53;;;;;;;;;;5011730;27;99923;-60
2023/09/14 11:53:32;;;;;;;8.23;2.72;;;;;;;;;;5014308;27;99485;-60
2023/09/14 11:55:58;;;;;;;8.93;3.05;;;;;;;;;;5015497;27;99106;-60
2023/09/14 11:58:25;;;;;;;10.48;3.05;;;;;;;;;;5010808;27;99882;-60
2023/09/14 12:00:54;;;;;;;9.98;3.30;;;;;;;;;;5010800;27;98613;-60
2023/09/14 12:03:21;;;;;;;10.38;3.22;;;;;;;;;;5012671;27;99836;-60
2023/09/14 12:05:48;;;;;;;9.00;3.30;;;;;;;;;;5012133;27;99373;-60
2023/09/14 12:08:15;;;;;;;6.50;2.50;;;;;;;;;;5010421;27;98697;-61
2023/09/14 12:10:43;;;;;;;8.05;2.83;;;;;;;;;;5015551;27;99290;-60
2023/09/14 12:13:15;;;;;;;12.57;3.35;;;;;;;;;;5009871;27;99464;-60
2023/09/14 12:15:42;;;;;;;9.18;3.05;;;;;;;;;;5013876;27;98618;-60
2023/09/14 12:18:10;;;;;;;6.45;3.03;;;;;;;;;;5010945;27;99602;-61
2023/09/14 12:20:40;;;;;;;5.88;2.75;;;;;;;;;;5010356;27;97721;-60
2023/09/14 12:23:07;;;;;;;;;;;;;;;;;;5011792;27;98970;-59
2023/09/14 12:25:34;;;;;;;9.57;3.05;;;;;;;;;;5010971;27;130157;-60
2023/09/14 12:28:03;;;;;;;10.60;3.30;;;;;;;;;;5009774;27;99431;-61
2023/09/14 12:30:30;;;;;;;7.07;3.20;;;;;;;;;;5010699;27;101382;-61
2023/09/14 12:32:57;;;;;;;8.55;3.53;;;;;;;;;;5010538;27;99522;-61
2023/09/14 12:35:24;;;;;;;4.63;2.80;;;;;;;;;;5010524;27;98736;-61
2023/09/14 12:37:52;;;;;;;6.03;3.08;;;;;;;;;;5013068;27;99118;-61
2023/09/14 12:40:19;;;;;;;6.38;2.80;;;;;;;;;;5012787;27;98648;-62
2023/09/14 12:42:45;;;;;;;7.43;3.20;;;;;;;;;;5014144;27;99159;-59
2023/09/14 12:45:15;;;;;;;7.32;3.17;;;;;;;;;;5009952;27;100131;-60
2023/09/14 12:47:42;;;;;;;25.02;21.88;;;;;;;;;;5010678;27;98539;-60
2023/09/14 12:50:15;;;;;;;119.88;109.93;;;;;;;;;;5009554;27;100730;-60
2023/09/14 12:52:45;;;;;;;123.93;112.88;;;;;;;;;;5006894;27;100316;-60
2023/09/14 12:55:16;;;;;;;10.38;4.47;;;;;;;;;;5016430;27;98807;-60
2023/09/14 12:57:43;;;;;;;6.78;3.13;;;;;;;;;;5017489;27;99824;-60
2023/09/14 13:00:14;;;;;;;10.57;3.03;;;;;;;;;;5016817;27;99518;-59
2023/09/14 13:02:45;;;;;;;6.55;3.35;;;;;;;;;;5012614;27;100381;-60
2023/09/14 13:05:15;;;;;;;9.48;3.17;;;;;;;;;;5008471;27;99421;-60
2023/09/14 13:07:49;;;;;;;21.95;13.70;;;;;;;;;;5010157;27;98645;-60
2023/09/14 13:10:23;;;;;;;5.95;2.60;;;;;;;;;;5010637;27;100262;-60
2023/09/14 13:13:04;;;;;;;7.68;2.78;;;;;;;;;;5014067;27;99463;-62
2023/09/14 13:15:31;;;;;;;7.40;2.70;;;;;;;;;;5009668;27;98665;-61
2023/09/14 13:17:59;;;;;;;7.95;2.80;;;;;;;;;;5010509;27;100153;-61
2023/09/14 13:20:26;;;;;;;8.90;3.45;;;;;;;;;;5012874;27;100766;-61
2023/09/14 13:22:53;;;;;;;23.85;12.43;;;;;;;;;;5008822;27;99090;-61
2023/09/14 13:25:24;;;;;;;68.60;62.33;;;;;;;;;;5008716;27;99591;-61
2023/09/14 13:27:51;;;;;;;95.90;88.13;;;;;;;;;;5009555;27;98472;-60
2023/09/14 13:30:17;;;;;;;109.82;100.53;;;;;;;;;;5008571;27;99386;-60
2023/09/14 13:32:46;;;;;;;109.28;100.20;;;;;;;;;;5007344;27;100535;-60
2023/09/14 13:35:13;;;;;;;;;;;;;;;;;;5008478;27;98363;-60
2023/09/14 13:37:40;;;;;;;141.63;129.45;;;;;;;;;;5031875;27;129302;-59
2023/09/14 13:40:19;;;;;;;135.95;123.78;;;;;;;;;;5010376;27;99496;-59
2023/09/14 13:42:47;;;;;;;180.32;165.02;;;;;;;;;;5010322;27;99464;-60
2023/09/14 13:45:14;;;;;;;225.57;206.77;;;;;;;;;;5006841;27;101438;-59
2023/09/14 13:47:41;;;;;;;227.07;208.32;;;;;;;;;;5009804;27;99226;-60
2023/09/14 13:50:08;;;;;;;182.13;165.05;;;;;;;;;;5007290;27;99384;-60
2023/09/14 13:52:35;;;;;;;153.02;139.02;;;;;;;;;;5012118;27;101459;-60
2023/09/14 13:55:02;;;;;;;170.70;155.93;;;;;;;;;;5007684;27;98797;-60
2023/09/14 13:57:28;;;;;;;195.57;177.93;;;;;;;;;;5007136;27;99425;-60
2023/09/14 13:59:55;;;;;;;209.18;190.82;;;;;;;;;;5006882;27;99242;-60
2023/09/14 14:02:21;;;;;;;246.90;226.27;;;;;;;;;;5007784;27;98673;-60
2023/09/14 14:04:48;;;;;;;263.67;241.23;;;;;;;;;;5014145;27;99594;-60
2023/09/14 14:07:15;;;;;;;284.40;258.92;;;;;;;;;;5006136;27;99406;-60
2023/09/14 14:09:42;;;;;;;317.23;288.60;;;;;;;;;;5007350;27;100371;-60
2023/09/14 14:12:09;;;;;;;312.65;285.35;;;;;;;;;;5006915;27;100049;-61
2023/09/14 14:14:35;;;;;;;294.42;266.48;;;;;;;;;;5010408;27;98885;-60
2023/09/14 14:17:03;;;;;;;306.95;280.77;;;;;;;;;;5007939;27;99658;-60
2023/09/14 14:19:30;;;;;;;327.30;297.98;;;;;;;;;;5006471;27;99741;-60
2023/09/14 14:21:56;;;;;;;385.63;350.63;;;;;;;;;;5013948;27;98858;-60
2023/09/14 14:24:23;;;;;;;387.88;352.65;;;;;;;;;;5012944;27;99666;-60
2023/09/14 14:26:51;;;;;;;360.35;329.13;;;;;;;;;;5013863;27;99868;-60
2023/09/14 14:29:18;;;;;;;419.83;383.23;;;;;;;;;;5006538;27;100181;-60
2023/09/14 14:31:44;;;;;;;365.30;334.48;;;;;;;;;;5006102;27;101596;-60
2023/09/14 14:34:13;;;;;;;451.17;412.08;;;;;;;;;;5006310;27;99105;-60
2023/09/14 14:36:39;;;;;;;417.83;380.05;;;;;;;;;;5010760;27;99558;-60